Latest Weather Observations for Southern Cross Airport

IDW60801

Issued at 9:33 pm WST Monday 27 February 2017 (issued every 30 minutes, with the page automatically refreshed every 10 minutes)

About weather observations | Map of weather stations | Latest weather observations for WA | Other Formats
Station Details ID: 012320 Name: SOUTHERN CROSS AIRFIELD Lat: -31.24 Lon: 119.36 Height: 347.4 m
Data from the previous 72 hours. | See also: Recent months at Southern Cross Airport
Date/Time
WST
Temp
°C
App
Temp
°C
Dew
Point
°C
Rel
Hum
%
Delta-T
°C
Wind Press
QNH
hPa
Press
MSL
hPa
Rain since
9am
mm
Dir  Spd
km/h
Gust
km/h
Spd
kts
Gust
kts
27/09:30pm 24.1 24.4 16.1 61 4.9 SSE 9 13 5 7 1014.8 1012.7 0.0
27/09:00pm 23.8 22.9 15.8 61 4.9 S 15 19 8 10 1014.5 1012.5 0.0
27/08:30pm 24.7 23.5 16.2 59 5.3 S 17 20 9 11 1014.3 1012.3 0.0
27/08:00pm 24.8 24.2 15.7 57 5.6 ESE 13 17 7 9 1014.1 1012.1 0.0
27/07:30pm 26.4 23.2 14.2 47 7.4 SSE 24 32 13 17 1013.5 1011.5 0.0
27/07:00pm 25.8 22.5 16.9 58 5.6 SE 30 37 16 20 1013.0 1010.9 0.0
27/06:30pm 28.6 25.1 14.4 41 8.7 SSW 26 33 14 18 1013.7 1011.7 0.0
27/06:22pm 31.6 28.8 11.4 29 11.9 W 17 22 9 12 1013.7 1011.7 0.0
27/06:00pm 32.8 29.3 10.2 25 13.2 SW 19 28 10 15 1011.7 1009.6 0.0
27/05:30pm 33.3 30.7 10.6 25 13.3 SSW 15 32 8 17 1012.3 1010.2 0.0
27/05:00pm 34.9 33.1 9.3 21 14.9 W 9 11 5 6 1011.7 1009.6 0.0
27/04:30pm 35.3 32.2 8.9 20 15.2 W 15 22 8 12 1011.6 1009.5 0.0
27/04:00pm 35.7 31.8 9.3 20 15.4 NNW 20 35 11 19 1011.7 1009.6 0.0
27/03:30pm 38.5 35.5 9.1 17 17.3 WNW 15 32 8 17 1011.6 1009.5 0.0
27/03:00pm 36.5 34.6 9.2 19 15.9 NNW 9 17 5 9 1011.9 1009.8 0.0
27/02:30pm 36.7 34.9 9.3 19 16.0 WNW 9 15 5 8 1012.1 1010.0 0.0
27/02:00pm 36.8 33.5 9.4 19 16.1 N 17 24 9 13 1012.5 1010.4 0.0
27/01:30pm 35.9 32.8 8.7 19 15.7 NNW 15 24 8 13 1012.9 1010.8 0.0
27/01:00pm 35.7 33.7 10.0 21 15.1 N 11 24 6 13 1013.1 1011.1 0.0
27/12:30pm 35.7 33.1 9.3 20 15.4 N 13 20 7 11 1013.5 1011.5 0.0
27/12:00pm 34.2 33.1 12.0 26 13.4 NNE 9 13 5 7 1013.8 1011.8 0.0
27/11:30am 33.5 33.0 11.9 27 13.0 NE 6 11 3 6 1014.2 1012.2 0.0
27/11:00am 32.1 31.5 11.8 29 12.1 NNW 6 13 3 7 1014.7 1012.6 0.0
27/10:30am 30.8 28.7 11.2 30 11.5 NE 13 19 7 10 1014.7 1012.6 0.0
27/10:00am 29.9 28.6 13.6 36 9.9 ENE 13 17 7 9 1014.9 1012.8 0.0
27/09:30am 28.7 28.1 14.5 42 8.7 E 11 15 6 8 1015.2 1013.1 0.0
27/09:00am 26.8 25.2 14.9 48 7.3 E 17 22 9 12 1015.0 1012.9 0.0
27/08:30am 26.2 25.0 15.0 50 6.8 SE 15 19 8 10 1015.1 1013.0 0.0
27/08:00am 25.3 23.9 14.4 50 6.6 S 15 19 8 10 1015.0 1012.9 0.0
27/07:30am 24.3 22.6 14.7 55 5.8 ESE 17 22 9 12 1014.4 1012.4 0.0
27/07:00am 24.0 22.5 14.1 54 5.9 E 15 20 8 11 1014.3 1012.3 0.0
27/06:30am 23.3 22.2 13.2 53 5.9 ESE 11 17 6 9 1014.2 1012.2 0.0
27/06:00am 23.5 21.8 12.5 50 6.4 SSE 13 15 7 8 1013.9 1011.9 0.0
27/05:30am 23.7 22.0 12.4 49 6.6 ESE 13 19 7 10 1013.6 1011.6 0.0
27/05:00am 23.5 22.6 12.5 50 6.4 SE 9 19 5 10 1013.4 1011.4 0.0
27/04:30am 22.8 22.7 12.1 51 6.1 SW 4 9 2 5 1014.1 1012.1 0.0
27/04:00am 22.0 21.1 12.5 54 5.5 ESE 9 13 5 7 1013.3 1011.3 0.0
27/03:30am 22.7 22.3 12.3 52 6.0 S 6 11 3 6 1013.1 1011.1 0.0
27/03:00am 23.9 23.4 12.5 49 6.6 ESE 7 11 4 6 1013.0 1010.9 0.0
27/02:30am 24.3 24.1 12.9 49 6.7 SSW 6 13 3 7 1013.3 1011.3 0.0
27/02:00am 24.0 22.7 12.6 49 6.6 ESE 11 15 6 8 1013.4 1011.4 0.0
27/01:30am 23.3 23.3 13.5 54 5.8 N 6 7 3 4 1013.3 1011.3 0.0
27/01:00am 23.5 23.2 12.8 51 6.2 NNE 6 7 3 4 1012.9 1010.8 0.0
27/12:30am 23.2 24.2 13.1 53 5.9 CALM 0 0 0 0 1012.9 1010.8 0.0
27/12:00am 23.2 24.4 13.9 56 5.5 CALM 0 0 0 0 1012.7 1010.6 0.0
 
Date/Time
WST
Temp
°C
App
Temp
°C
Dew
Point
°C
Rel
Hum
%
Delta-T
°C
Wind Press
QNH
hPa
Press
MSL
hPa
Rain since
9am
mm
Dir  Spd
km/h
Gust
km/h
Spd
kts
Gust
kts
26/11:30pm 23.7 23.3 12.4 49 6.6 SE 6 9 3 5 1012.7 1010.6 0.0
26/11:00pm 24.4 25.2 12.7 48 6.8 CALM 0 6 0 3 1012.8 1010.7 0.0
26/10:30pm 24.8 25.6 12.4 46 7.2 CALM 0 0 0 0 1012.8 1010.7 0.0
26/10:00pm 25.3 25.2 12.2 44 7.6 NW 4 7 2 4 1012.9 1010.8 0.0
26/09:30pm 25.9 25.2 12.0 42 8.1 NNE 7 11 4 6 1013.0 1010.9 0.0
26/09:00pm 28.1 27.5 11.6 36 9.6 ESE 6 9 3 5 1012.7 1010.6 0.0
26/08:30pm 29.0 26.7 10.6 32 10.6 ENE 13 15 7 8 1012.7 1010.6 0.0
26/08:00pm 28.8 28.2 10.5 32 10.5 NW 4 6 2 3 1013.0 1010.9 0.0
26/07:30pm 29.1 27.5 10.3 31 10.8 NW 9 11 5 6 1013.1 1011.1 0.0
26/07:00pm 29.8 27.9 10.4 30 11.2 NNW 11 13 6 7 1013.1 1011.1 0.0
26/06:30pm 31.3 28.7 9.5 26 12.5 NNW 13 17 7 9 1012.9 1010.8 0.0
26/06:00pm 31.6 28.0 9.8 26 12.6 N 19 24 10 13 1012.8 1010.7 0.0
26/05:30pm 31.7 27.9 9.8 26 12.6 N 20 26 11 14 1012.7 1010.6 0.0
26/05:00pm 31.9 25.1 9.4 25 12.9 N 35 46 19 25 1012.6 1010.5 0.0
26/04:30pm 32.4 25.6 9.2 24 13.3 NNW 35 50 19 27 1012.3 1010.2 0.0
26/04:13pm 32.6 26.4 10.0 25 13.1 NNW 33 52 18 28 1012.0 1009.9 0.0
26/04:00pm 34.4 28.3 8.2 20 14.9 NW 30 50 16 27 1011.7 1009.6 0.0
26/03:30pm 33.8 27.2 7.7 20 14.7 NW 32 43 17 23 1011.3 1009.3 0.0
26/03:02pm 35.4 29.3 6.6 17 16.1 NW 28 57 15 31 1011.0 1009.0 0.0
26/03:00pm 35.9 30.6 7.0 17 16.3 NW 24 41 13 22 1010.9 1008.9 0.0
26/02:30pm 37.4 33.3 4.4 13 18.0 NNW 15 22 8 12 1010.5 1008.5 0.0
26/02:00pm 37.3 32.8 4.3 13 18.0 NW 17 28 9 15 1010.8 1008.8 0.0
26/01:30pm 38.5 32.6 4.1 12 18.8 NW 24 39 13 21 1011.1 1009.1 0.0
26/01:00pm 38.8 32.6 4.3 12 18.9 NW 26 39 14 21 1011.3 1009.3 0.0
26/12:30pm 37.7 31.6 4.6 13 18.1 NNW 26 35 14 19 1011.6 1009.5 0.0
26/12:00pm 37.9 32.0 5.8 14 17.9 N 26 37 14 20 1012.0 1009.9 0.0
26/11:30am 36.0 30.4 5.3 15 16.8 N 24 33 13 18 1012.6 1010.5 0.0
26/11:00am 35.3 28.4 4.8 15 16.5 N 30 41 16 22 1012.9 1010.8 0.0
26/10:30am 35.3 28.4 4.8 15 16.5 N 30 39 16 21 1013.0 1010.9 0.0
26/10:00am 34.3 27.8 6.6 18 15.4 N 30 41 16 22 1013.4 1011.4 0.0
26/09:30am 31.5 24.5 5.8 20 13.9 N 32 39 17 21 1013.5 1011.5 0.0
26/09:00am 30.1 23.1 6.1 22 12.9 N 32 39 17 21 1013.6 1011.6 0.0
26/08:30am 29.6 24.2 6.3 23 12.6 N 24 33 13 18 1013.7 1011.7 0.0
26/08:00am 27.6 22.8 7.5 28 10.9 N 22 28 12 15 1014.0 1012.0 0.0
26/07:30am 25.7 22.1 6.8 30 10.1 NNE 15 24 8 13 1013.8 1011.8 0.0
26/07:00am 24.0 20.5 7.2 34 8.9 NNE 15 20 8 11 1013.7 1011.7 0.0
26/06:30am 20.2 18.6 8.2 46 6.3 NE 6 9 3 5 1013.6 1011.6 0.0
26/06:00am 20.0 18.0 7.1 43 6.7 NNE 7 11 4 6 1013.5 1011.5 0.0
26/05:30am 20.3 17.8 6.6 41 7.0 NE 9 15 5 8 1013.2 1011.2 0.0
26/05:00am 20.7 18.8 6.6 40 7.3 NNE 6 9 3 5 1012.9 1010.8 0.0
26/04:30am 20.8 18.9 6.7 40 7.3 ENE 6 9 3 5 1012.8 1010.7 0.0
26/04:00am 20.6 19.2 7.2 42 7.0 E 4 6 2 3 1012.9 1010.8 0.0
26/03:30am 21.4 19.5 6.5 38 7.7 ENE 6 7 3 4 1012.9 1010.8 0.0
26/03:00am 21.0 20.4 7.3 41 7.2 CALM 0 0 0 0 1013.0 1010.9 0.0
26/02:30am 21.0 19.1 6.9 40 7.3 NE 6 7 3 4 1013.1 1011.1 0.0
26/02:00am 20.9 18.8 6.8 40 7.3 N 7 7 4 4 1013.2 1011.2 0.0
26/01:30am 23.1 20.9 6.4 34 8.7 NNE 7 9 4 5 1013.2 1011.2 0.0
26/01:00am 24.5 20.4 6.3 31 9.5 NE 17 22 9 12 1013.4 1011.4 0.0
26/12:30am 25.2 20.8 6.4 30 9.9 NE 19 24 10 13 1013.5 1011.5 0.0
26/12:00am 25.4 21.4 6.6 30 9.9 NE 17 20 9 11 1013.9 1011.9 0.0
 
Date/Time
WST
Temp
°C
App
Temp
°C
Dew
Point
°C
Rel
Hum
%
Delta-T
°C
Wind Press
QNH
hPa
Press
MSL
hPa
Rain since
9am
mm
Dir  Spd
km/h
Gust
km/h
Spd
kts
Gust
kts
25/11:30pm 26.1 22.1 6.7 29 10.3 ENE 17 20 9 11 1014.0 1012.0 0.0
25/11:00pm 26.4 22.3 6.4 28 10.6 ENE 17 20 9 11 1014.1 1012.1 0.0
25/10:30pm 26.1 22.9 6.7 29 10.3 E 13 17 7 9 1014.3 1012.3 0.0
25/10:00pm 25.1 22.8 7.3 32 9.5 ESE 9 13 5 7 1014.5 1012.5 0.0
25/09:30pm 25.1 22.2 8.1 34 9.2 SE 13 17 7 9 1014.7 1012.6 0.0
25/09:00pm 26.7 23.6 7.2 29 10.5 ESE 13 15 7 8 1014.5 1012.5 0.0
25/08:30pm 27.1 24.2 8.0 30 10.5 ESE 13 15 7 8 1014.5 1012.5 0.0
25/08:00pm 28.2 25.5 7.4 27 11.3 E 11 13 6 7 1014.4 1012.4 0.0
25/07:30pm 29.7 26.4 6.4 23 12.6 E 13 15 7 8 1014.3 1012.3 0.0
25/07:00pm 30.9 28.3 6.0 21 13.4 SE 9 11 5 6 1014.0 1012.0 0.0
25/06:30pm 33.5 30.9 4.2 16 15.6 SE 7 9 4 5 1013.9 1011.9 0.0
25/06:00pm 34.2 33.0 4.8 16 15.8 CALM 0 6 0 3 1014.0 1012.0 0.0
25/05:30pm 34.2 31.5 3.9 15 16.1 N 7 9 4 5 1014.0 1012.0 0.0
25/05:00pm 34.4 31.8 4.0 15 16.2 ENE 7 15 4 8 1014.2 1012.2 0.0
25/04:30pm 34.9 31.2 4.4 15 16.4 NW 13 17 7 9 1014.4 1012.4 0.0
25/04:00pm 34.9 30.6 3.5 14 16.6 NW 15 24 8 13 1014.7 1012.6 0.0
25/03:30pm 34.4 31.0 4.0 15 16.2 NNE 11 20 6 11 1015.0 1012.9 0.0
25/03:00pm 34.3 30.7 4.9 16 15.9 N 13 19 7 10 1015.3 1013.2 0.0
25/02:30pm 34.5 30.9 5.0 16 16.0 WNW 13 20 7 11 1015.7 1013.7 0.0
25/02:00pm 33.3 30.3 5.8 18 15.0 NE 11 24 6 13 1016.2 1014.2 0.0
25/01:30pm 32.4 29.7 5.8 19 14.4 E 9 13 5 7 1016.8 1014.8 0.0
25/01:00pm 32.8 29.8 6.2 19 14.5 ENE 11 22 6 12 1017.3 1015.3 0.0
25/12:30pm 32.6 29.2 6.0 19 14.5 NE 13 20 7 11 1017.9 1015.8 0.0
25/12:00pm 31.6 27.3 5.2 19 14.1 NNE 17 26 9 14 1018.3 1016.3 0.0
25/11:30am 30.8 26.4 6.6 22 13.2 NNE 19 28 10 15 1018.8 1016.8 0.0
25/11:00am 30.7 26.3 7.2 23 12.9 NNE 20 28 11 15 1019.3 1017.3 0.0
25/10:30am 29.3 24.9 7.2 25 12.1 NNE 20 30 11 16 1019.8 1017.8 0.0
25/10:00am 28.7 24.5 7.3 26 11.6 NNE 19 26 10 14 1020.2 1018.2 0.0
25/09:30am 27.2 22.2 6.6 27 11.0 NE 22 28 12 15 1020.5 1018.5 0.0
25/09:00am 25.8 20.9 6.9 30 10.0 NNE 22 28 12 15 1020.9 1018.9 0.0
25/08:30am 24.2 18.5 6.9 33 9.1 NE 26 37 14 20 1020.9 1018.9 0.0
25/08:00am 23.4 18.5 7.1 35 8.6 NE 22 32 12 17 1020.9 1018.9 0.0
25/07:30am 22.0 16.6 6.3 36 8.1 NNE 24 32 13 17 1021.0 1019.0 0.0
25/07:00am 20.8 16.7 6.4 39 7.4 NE 17 22 9 12 1020.9 1018.9 0.0
25/06:30am 19.2 15.1 6.3 43 6.5 NE 17 22 9 12 1020.7 1018.6 0.0
25/06:00am 17.9 14.5 5.8 45 6.0 NE 13 19 7 10 1020.5 1018.5 0.0
25/05:30am 17.7 14.3 5.9 46 5.9 NE 13 17 7 9 1020.5 1018.5 0.0
25/05:00am 18.7 15.2 5.5 42 6.5 NNE 13 17 7 9 1020.4 1018.4 0.0
25/04:30am 19.2 15.7 5.3 40 6.9 NE 13 20 7 11 1020.0 1018.0 0.0
25/04:00am 20.0 14.8 5.3 38 7.3 ENE 22 28 12 15 1019.8 1017.8 0.0
25/03:30am 20.5 15.2 4.9 36 7.8 ENE 22 28 12 15 1019.9 1017.9 0.0
25/03:00am 20.9 15.6 4.9 35 8.0 ENE 22 30 12 16 1019.9 1017.9 0.0
25/02:30am 21.4 16.5 4.9 34 8.3 ENE 20 28 11 15 1020.1 1018.1 0.0
25/02:00am 21.9 17.0 5.3 34 8.4 ENE 20 26 11 14 1020.2 1018.2 0.0
25/01:30am 22.5 17.9 5.4 33 8.7 ENE 19 24 10 13 1020.3 1018.3 0.0
25/01:00am 23.0 18.2 5.4 32 9.0 ENE 20 28 11 15 1020.3 1018.3 0.0
25/12:30am 22.6 18.4 5.5 33 8.7 ENE 17 22 9 12 1020.5 1018.5 0.0
25/12:00am 22.6 18.5 6.0 34 8.5 E 17 22 9 12 1020.7 1018.6 0.0
 
Date/Time
WST
Temp
°C
App
Temp
°C
Dew
Point
°C
Rel
Hum
%
Delta-T
°C
Wind Press
QNH
hPa
Press
MSL
hPa
Rain since
9am
mm
Dir  Spd
km/h
Gust
km/h
Spd
kts
Gust
kts
24/11:30pm 22.9 18.2 5.3 32 9.0 E 19 26 10 14 1020.9 1018.9 0.0
24/11:00pm 23.1 18.5 5.5 32 9.0 E 19 24 10 13 1020.8 1018.7 0.0
24/10:30pm 23.9 19.0 5.3 30 9.5 E 20 28 11 15 1020.9 1018.9 0.0
24/10:00pm 24.7 19.9 5.5 29 9.9 E 20 26 11 14 1021.1 1019.1 0.0

Other Formats:

Comma delimited format used in spreadsheet applications
http://www.bom.gov.au/fwo/IDW60801/IDW60801.95634.axf

JavaScript Object Notation format (JSON) in row-major order
http://www.bom.gov.au/fwo/IDW60801/IDW60801.95634.json